Time;durP1;ratioP1;P1;durP2;ratioP2;P2;SDS_P1;SDS_P2;PMS_P1;PMS_P2;Temp;Humidity;BMP_temperature;BMP_pressure;BME280_temperature;BME280_humidity;BME280_pressure;Samples;Min_cycle;Max_cycle;Signal;HPM_P1;HPM_P2
2021/01/07 00:00:08;;;;;;;7.03;6.30;;;2.50;99.90;;;;;;5096014;28;20246;-88
2021/01/07 00:02:34;;;;;;;8.20;6.30;;;2.50;99.90;;;;;;5097606;28;20288;-89
2021/01/07 00:05:01;;;;;;;9.88;6.25;;;2.50;99.90;;;;;;5097088;28;20240;-86
2021/01/07 00:07:27;;;;;;;8.88;5.88;;;2.50;99.90;;;;;;5098695;28;20286;-83
2021/01/07 00:09:54;;;;;;;7.03;5.43;;;2.50;99.90;;;;;;5097567;28;20280;-90
2021/01/07 00:12:20;;;;;;;9.38;6.10;;;2.50;99.90;;;;;;5098097;28;20201;-91
2021/01/07 00:14:47;;;;;;;9.77;7.05;;;2.60;99.90;;;;;;5096845;28;20638;-87
2021/01/07 00:17:14;;;;;;;8.88;5.60;;;2.60;99.90;;;;;;5096807;28;20228;-87
2021/01/07 00:19:40;;;;;;;11.13;6.90;;;2.60;99.90;;;;;;5098229;28;20200;-88
2021/01/07 00:22:08;;;;;;;8.95;6.68;;;2.50;99.90;;;;;;5096709;28;20295;-90
2021/01/07 00:24:35;;;;;;;10.10;6.40;;;2.60;99.90;;;;;;5096684;28;20286;-87
2021/01/07 00:27:01;;;;;;;8.57;6.32;;;2.60;99.90;;;;;;5096007;28;20327;-87
2021/01/07 00:29:27;;;;;;;7.95;6.25;;;2.60;99.90;;;;;;5094952;28;20254;-90
2021/01/07 00:31:55;;;;;;;9.68;7.05;;;2.60;99.90;;;;;;5095834;28;20211;-87
2021/01/07 00:34:21;;;;;;;11.43;7.35;;;2.60;99.90;;;;;;5095178;28;20637;-87
2021/01/07 00:36:55;;;;;;;8.13;6.68;;;2.60;99.90;;;;;;5095613;28;20208;-87
2021/01/07 00:39:21;;;;;;;9.95;6.80;;;2.50;99.90;;;;;;5096943;27;20557;-88
2021/01/07 00:41:52;;;;;;;8.68;6.18;;;2.70;99.90;;;;;;5095371;28;20284;-88
2021/01/07 00:44:19;;;;;;;11.13;6.07;;;2.60;99.90;;;;;;5094129;28;20300;-89
2021/01/07 00:46:45;;;;;;;11.23;7.82;;;2.50;99.90;;;;;;5095363;28;20234;-88
2021/01/07 00:49:15;;;;;;;10.23;6.47;;;2.50;99.90;;;;;;5095199;28;20197;-88
2021/01/07 00:51:42;;;;;;;8.43;6.60;;;2.50;99.90;;;;;;5095496;28;20239;-88
2021/01/07 00:54:11;;;;;;;8.43;6.40;;;2.50;99.90;;;;;;5095502;28;20205;-84
2021/01/07 00:56:38;;;;;;;9.25;7.90;;;2.50;99.90;;;;;;5095062;28;20567;-86
2021/01/07 00:59:05;;;;;;;8.00;6.10;;;2.60;99.90;;;;;;5093588;28;20292;-84
2021/01/07 01:01:32;;;;;;;7.63;6.35;;;2.50;99.90;;;;;;5095115;28;20212;-83
2021/01/07 01:03:59;;;;;;;9.70;6.38;;;2.50;99.90;;;;;;5093727;28;20794;-85
2021/01/07 01:06:33;;;;;;;9.77;6.72;;;2.50;99.90;;;;;;5094659;28;20738;-86
2021/01/07 01:09:00;;;;;;;6.78;5.20;;;2.50;99.90;;;;;;5094593;28;20209;-85
2021/01/07 01:11:27;;;;;;;11.82;7.50;;;2.50;99.90;;;;;;5094551;28;20295;-84
2021/01/07 01:13:54;;;;;;;9.07;7.90;;;2.50;99.90;;;;;;5093515;28;20254;-86
2021/01/07 01:16:20;;;;;;;11.48;6.38;;;2.60;99.90;;;;;;5094221;28;20751;-86
2021/01/07 01:18:47;;;;;;;10.25;7.05;;;2.60;99.90;;;;;;5094061;28;20213;-85
2021/01/07 01:21:16;;;;;;;10.25;6.82;;;2.60;99.90;;;;;;5094318;28;20201;-86
2021/01/07 01:23:43;;;;;;;9.43;7.25;;;2.50;99.90;;;;;;5094400;28;20283;-86
2021/01/07 01:26:10;;;;;;;10.07;7.10;;;2.50;99.90;;;;;;5094160;28;20324;-83
2021/01/07 01:28:36;;;;;;;11.85;7.63;;;2.50;99.90;;;;;;5093170;28;20323;-84
2021/01/07 01:31:03;;;;;;;10.32;6.53;;;2.60;99.90;;;;;;5094180;28;20663;-82
2021/01/07 01:33:29;;;;;;;9.02;6.38;;;2.60;99.90;;;;;;5094245;28;20216;-86
2021/01/07 01:35:56;;;;;;;8.85;6.50;;;2.40;99.90;;;;;;5093472;28;20728;-86
2021/01/07 01:38:23;;;;;;;11.13;7.10;;;2.40;99.90;;;;;;5107114;28;20258;-86
2021/01/07 01:40:50;;;;;;;10.15;6.97;;;2.40;99.90;;;;;;5099193;28;20209;-83
2021/01/07 01:43:17;;;;;;;12.00;7.40;;;2.40;99.90;;;;;;5097874;28;20283;-83
2021/01/07 01:45:43;;;;;;;15.75;7.15;;;2.40;99.90;;;;;;5096675;28;20303;-84
2021/01/07 01:48:11;;;;;;;10.10;6.72;;;2.40;99.90;;;;;;5094980;28;20236;-86
2021/01/07 01:50:37;;;;;;;10.18;6.50;;;2.40;99.90;;;;;;5093812;28;20200;-86
2021/01/07 01:53:04;;;;;;;10.13;7.50;;;2.40;99.90;;;;;;5093987;28;20205;-84
2021/01/07 01:55:30;;;;;;;8.07;6.40;;;2.50;99.90;;;;;;5093828;28;20204;-86
2021/01/07 01:58:00;;;;;;;9.88;6.70;;;2.50;99.90;;;;;;5094423;28;20232;-85
2021/01/07 02:00:26;;;;;;;11.00;8.25;;;2.40;99.90;;;;;;5092524;28;20338;-87
2021/01/07 02:02:52;;;;;;;13.10;7.85;;;2.40;99.90;;;;;;5093875;28;20284;-88
2021/01/07 02:05:19;;;;;;;14.88;10.00;;;2.30;99.90;;;;;;5093900;28;20287;-86
2021/01/07 02:07:46;;;;;;;12.00;7.53;;;2.30;99.90;;;;;;5099724;28;20239;-84
2021/01/07 02:10:14;;;;;;;12.02;7.72;;;2.40;99.90;;;;;;5116417;28;20228;-81
2021/01/07 02:12:45;;;;;;;10.82;7.70;;;2.40;99.90;;;;;;5117936;27;20192;-83
2021/01/07 02:15:14;;;;;;;13.35;8.52;;;2.40;99.90;;;;;;5106829;28;20613;-86
2021/01/07 02:17:40;;;;;;;11.85;8.60;;;2.40;99.90;;;;;;5097055;28;20288;-87
2021/01/07 02:20:09;;;;;;;11.80;6.88;;;2.40;99.90;;;;;;5095853;28;20283;-85
2021/01/07 02:22:36;;;;;;;10.38;7.78;;;2.40;99.90;;;;;;5093811;28;20242;-85
2021/01/07 02:25:03;;;;;;;12.60;9.32;;;2.40;99.90;;;;;;5093538;28;20271;-85
2021/01/07 02:27:30;;;;;;;14.20;9.07;;;2.40;99.90;;;;;;5093078;28;20909;-86
2021/01/07 02:29:56;;;;;;;10.68;7.50;;;2.40;99.90;;;;;;5092296;28;20621;-86
2021/01/07 02:32:23;;;;;;;10.45;8.27;;;2.40;99.90;;;;;;5093565;28;20674;-86
2021/01/07 02:34:49;;;;;;;15.25;9.85;;;2.40;99.90;;;;;;5093166;28;20196;-85
2021/01/07 02:37:16;;;;;;;10.15;6.80;;;2.40;99.90;;;;;;5093393;28;20201;-85
2021/01/07 02:39:43;;;;;;;12.13;9.30;;;2.40;99.90;;;;;;5093336;28;20211;-86
2021/01/07 02:42:09;;;;;;;9.60;7.70;;;2.50;99.90;;;;;;5093402;28;20628;-85
2021/01/07 02:44:36;;;;;;;10.63;7.28;;;2.40;99.90;;;;;;5088749;28;20213;-87
2021/01/07 02:47:02;;;;;;;15.02;7.68;;;2.40;99.90;;;;;;5072975;28;20253;-87
2021/01/07 02:49:28;;;;;;;13.82;9.27;;;2.40;99.90;;;;;;5075741;28;20205;-87
2021/01/07 02:51:55;;;;;;;12.07;8.90;;;2.40;99.90;;;;;;5076947;28;20291;-87
2021/01/07 02:54:22;;;;;;;12.00;8.30;;;2.40;99.90;;;;;;5077031;28;20323;-86
2021/01/07 02:56:48;;;;;;;12.80;8.63;;;2.40;99.90;;;;;;5076941;28;20247;-86
2021/01/07 02:59:15;;;;;;;10.73;7.22;;;2.40;99.90;;;;;;5075819;28;20241;-84
2021/01/07 03:01:41;;;;;;;14.00;8.93;;;2.40;99.90;;;;;;5079243;28;20213;-83
2021/01/07 03:04:07;;;;;;;10.90;8.77;;;2.40;99.90;;;;;;5076328;28;20202;-85
2021/01/07 03:06:34;;;;;;;8.93;6.97;;;2.40;99.90;;;;;;5076936;28;20304;-87
2021/01/07 03:09:00;;;;;;;11.75;8.85;;;2.40;99.90;;;;;;5076616;28;20642;-84
2021/01/07 03:11:28;;;;;;;8.80;6.43;;;2.40;99.90;;;;;;5034510;28;20701;-82
2021/01/07 03:13:54;;;;;;;12.30;8.13;;;2.40;99.90;;;;;;5033570;28;20211;-84
2021/01/07 03:16:20;;;;;;;11.60;7.88;;;2.40;99.90;;;;;;5034625;28;20669;-87
2021/01/07 03:18:47;;;;;;;12.40;7.47;;;2.40;99.90;;;;;;5034603;28;20662;-87
2021/01/07 03:21:13;;;;;;;12.30;7.95;;;2.40;99.90;;;;;;5034064;28;20264;-85
2021/01/07 03:23:39;;;;;;;10.98;7.72;;;2.40;99.90;;;;;;5034190;28;20209;-84
2021/01/07 03:26:06;;;;;;;11.30;8.00;;;2.40;99.90;;;;;;5034157;28;20206;-87
2021/01/07 03:28:33;;;;;;;10.68;7.53;;;2.30;99.90;;;;;;5036170;28;20321;-86
2021/01/07 03:30:59;;;;;;;11.43;8.25;;;2.30;99.90;;;;;;5076640;28;20298;-84
2021/01/07 03:33:26;;;;;;;8.90;7.30;;;2.30;99.90;;;;;;5076031;28;20206;-87
2021/01/07 03:35:52;;;;;;;13.48;7.93;;;2.30;99.90;;;;;;5076012;28;20676;-87
2021/01/07 03:38:18;;;;;;;11.60;8.13;;;2.30;99.90;;;;;;5076119;28;20217;-86
2021/01/07 03:40:45;;;;;;;12.95;8.50;;;2.30;99.90;;;;;;5076321;28;20285;-85
2021/01/07 03:43:11;;;;;;;11.48;8.48;;;2.30;99.90;;;;;;5076127;28;20197;-84
2021/01/07 03:45:38;;;;;;;9.80;7.78;;;2.30;99.90;;;;;;5075401;28;20201;-87
2021/01/07 03:48:06;;;;;;;10.13;7.40;;;2.30;99.90;;;;;;5076028;28;20261;-85
2021/01/07 03:50:32;;;;;;;12.15;8.40;;;2.30;99.90;;;;;;5076316;28;20212;-88
2021/01/07 03:52:59;;;;;;;10.98;7.53;;;2.30;99.90;;;;;;5075867;28;20290;-85
2021/01/07 03:55:25;;;;;;;8.60;6.88;;;2.30;99.90;;;;;;5075964;28;20206;-86
2021/01/07 03:57:52;;;;;;;7.85;6.55;;;2.30;99.90;;;;;;5075773;28;20212;-88
2021/01/07 04:00:19;;;;;;;9.88;7.00;;;2.30;99.90;;;;;;5074171;28;20271;-85
2021/01/07 04:02:46;;;;;;;15.25;8.88;;;2.20;99.90;;;;;;5075983;28;20208;-87
2021/01/07 04:05:13;;;;;;;15.75;8.75;;;2.30;99.90;;;;;;5075905;28;20296;-89
2021/01/07 04:07:39;;;;;;;12.98;7.50;;;2.30;99.90;;;;;;5075964;28;20233;-89
2021/01/07 04:10:07;;;;;;;12.10;7.13;;;2.30;99.90;;;;;;5075760;28;20216;-88
2021/01/07 04:12:33;;;;;;;10.90;7.82;;;2.20;99.90;;;;;;5075781;28;20212;-89
2021/01/07 04:15:00;;;;;;;11.95;7.25;;;2.20;99.90;;;;;;5074332;28;20729;-90
2021/01/07 04:17:26;;;;;;;13.10;8.13;;;2.20;99.90;;;;;;5095823;28;20308;-91
2021/01/07 04:19:53;;;;;;;13.52;6.55;;;2.30;99.90;;;;;;5095555;28;20239;-88
2021/01/07 04:22:21;;;;;;;9.57;6.90;;;2.20;99.90;;;;;;5095933;28;20208;-91
2021/01/07 04:24:48;;;;;;;11.77;7.32;;;2.20;99.90;;;;;;5060823;28;20232;-90
2021/01/07 04:27:14;;;;;;;9.02;6.65;;;2.20;99.90;;;;;;5095478;28;20606;-88
2021/01/07 04:29:41;;;;;;;8.80;6.35;;;2.20;99.90;;;;;;5094670;28;20254;-85
2021/01/07 04:32:07;;;;;;;10.10;6.78;;;2.20;99.90;;;;;;5095632;28;20239;-91
2021/01/07 04:34:33;;;;;;;7.43;6.28;;;2.20;99.90;;;;;;5080110;28;20284;-86
2021/01/07 04:37:00;;;;;;;9.40;5.95;;;2.20;99.90;;;;;;5075535;28;20296;-87
2021/01/07 04:39:27;;;;;;;11.15;6.80;;;2.20;99.90;;;;;;5075184;28;20415;-85
2021/01/07 04:41:53;;;;;;;7.05;6.20;;;2.20;99.90;;;;;;5074889;28;20241;-88
2021/01/07 04:44:21;;;;;;;7.13;5.95;;;2.20;99.90;;;;;;5073860;28;20201;-88
2021/01/07 04:46:47;;;;;;;6.25;5.10;;;2.20;99.90;;;;;;5075034;28;20270;-89
2021/01/07 04:49:14;;;;;;;7.30;5.95;;;2.20;99.90;;;;;;5075103;28;20330;-87
2021/01/07 04:51:41;;;;;;;6.93;6.15;;;2.20;99.90;;;;;;5074608;28;20248;-88
2021/01/07 04:54:09;;;;;;;7.45;6.25;;;2.20;99.90;;;;;;5075192;28;20245;-88
2021/01/07 04:56:36;;;;;;;5.65;4.45;;;2.20;99.90;;;;;;5074920;28;20197;-88
2021/01/07 04:59:02;;;;;;;6.70;4.95;;;2.20;99.90;;;;;;5073608;28;20210;-88
2021/01/07 05:01:29;;;;;;;5.63;4.40;;;2.20;99.90;;;;;;5075727;28;20288;-87
2021/01/07 05:03:57;;;;;;;8.13;5.45;;;2.20;99.90;;;;;;5074547;28;20198;-82
2021/01/07 05:06:25;;;;;;;8.63;5.68;;;2.10;99.90;;;;;;5074588;28;20550;-87
2021/01/07 05:09:00;;;;;;;8.30;5.82;;;2.10;99.90;;;;;;5074650;28;20340;-87
2021/01/07 05:11:29;;;;;;;10.35;6.28;;;2.20;99.90;;;;;;5074265;28;20605;-88
2021/01/07 05:14:00;;;;;;;11.82;6.30;;;2.20;99.90;;;;;;5073608;28;20205;-84
2021/01/07 05:16:29;;;;;;;6.78;5.43;;;2.20;99.90;;;;;;5074407;28;20255;-84
2021/01/07 05:18:55;;;;;;;6.47;5.47;;;2.20;99.90;;;;;;5074670;28;20216;-87
2021/01/07 05:21:22;;;;;;;9.77;6.43;;;2.20;99.90;;;;;;5074716;28;20230;-85
2021/01/07 05:23:49;;;;;;;10.07;5.93;;;2.20;99.90;;;;;;5074726;28;20671;-85
2021/01/07 05:26:19;;;;;;;7.22;6.32;;;2.20;99.90;;;;;;5074779;28;20711;-86
2021/01/07 05:28:48;;;;;;;8.70;6.45;;;2.10;99.90;;;;;;5072788;28;20374;-85
2021/01/07 05:31:18;;;;;;;6.38;5.40;;;2.20;99.90;;;;;;5074440;28;20280;-86
2021/01/07 05:33:45;;;;;;;11.13;7.20;;;2.20;99.90;;;;;;5074272;28;20228;-85
2021/01/07 05:36:21;;;;;;;9.35;6.85;;;2.20;99.90;;;;;;5073942;28;20293;-86
2021/01/07 05:38:48;;;;;;;5.97;4.93;;;2.20;99.90;;;;;;5073924;28;20617;-85
2021/01/07 05:41:16;;;;;;;8.40;6.90;;;2.20;99.90;;;;;;5074137;28;20205;-85
2021/01/07 05:43:43;;;;;;;6.88;4.95;;;2.20;99.90;;;;;;5072702;28;20201;-85
2021/01/07 05:46:11;;;;;;;6.20;5.50;;;2.20;99.90;;;;;;5074268;28;20205;-85
2021/01/07 05:48:38;;;;;;;5.43;4.85;;;2.20;99.90;;;;;;5073641;28;20228;-83
2021/01/07 05:51:16;;;;;;;8.63;5.25;;;2.20;99.90;;;;;;5073698;28;20246;-86
2021/01/07 05:53:44;;;;;;;5.78;4.97;;;2.20;99.90;;;;;;5074002;28;20284;-84
2021/01/07 05:56:11;;;;;;;5.07;4.60;;;2.20;99.90;;;;;;5073877;28;20296;-83
2021/01/07 05:58:38;;;;;;;6.13;5.00;;;2.20;99.90;;;;;;5072400;28;20209;-83
2021/01/07 06:01:05;;;;;;;9.15;6.30;;;2.20;99.90;;;;;;5074658;28;20290;-84
2021/01/07 06:03:37;;;;;;;5.78;4.68;;;2.20;99.90;;;;;;5073754;28;20228;-85
2021/01/07 06:06:04;;;;;;;9.32;5.20;;;2.20;99.90;;;;;;5073581;28;20202;-85
2021/01/07 06:08:34;;;;;;;7.00;5.75;;;2.20;99.90;;;;;;5073724;28;20264;-85
2021/01/07 06:11:05;;;;;;;7.65;5.50;;;2.20;99.90;;;;;;5074191;28;20202;-82
2021/01/07 06:13:32;;;;;;;5.35;4.55;;;2.10;99.90;;;;;;5073524;28;20288;-84
2021/01/07 06:15:58;;;;;;;6.80;5.22;;;2.20;99.90;;;;;;5075639;28;20296;-84
2021/01/07 06:18:25;;;;;;;39.47;25.10;;;2.20;99.90;;;;;;5089192;28;20212;-86
2021/01/07 06:21:01;;;;;;;34.00;17.80;;;2.10;99.90;;;;;;5095641;28;20236;-80
2021/01/07 06:23:31;;;;;;;14.73;8.18;;;2.20;99.90;;;;;;5093457;28;20207;-81
2021/01/07 06:26:19;;;;;;;9.55;6.35;;;2.10;99.90;;;;;;5080362;28;20197;-84
2021/01/07 06:28:46;;;;;;;9.55;6.50;;;2.20;99.90;;;;;;5073576;28;20260;-84
2021/01/07 06:31:15;;;;;;;6.10;5.50;;;2.10;99.90;;;;;;5073481;28;20656;-85
2021/01/07 06:33:42;;;;;;;6.95;6.22;;;2.10;99.90;;;;;;5079568;28;20546;-85
2021/01/07 06:36:11;;;;;;;7.15;4.65;;;2.10;99.90;;;;;;5094187;28;20212;-81
2021/01/07 06:38:51;;;;;;;6.88;5.25;;;2.20;99.90;;;;;;5095789;28;20292;-84
2021/01/07 06:41:19;;;;;;;11.18;6.38;;;2.20;99.90;;;;;;5109920;28;20228;-79
2021/01/07 06:43:48;;;;;;;13.77;7.40;;;2.20;99.90;;;;;;5101447;28;20287;-86
2021/01/07 06:46:42;;;;;;;9.25;7.07;;;2.10;99.90;;;;;;5106019;28;20269;-87
2021/01/07 06:49:25;;;;;;;8.00;6.07;;;2.10;99.90;;;;;;5103392;28;20594;-84
2021/01/07 06:51:55;;;;;;;9.80;7.60;;;2.10;99.90;;;;;;5093045;28;20520;-89
2021/01/07 06:54:24;;;;;;;9.00;6.47;;;2.10;99.90;;;;;;5094544;28;21032;-84
2021/01/07 06:56:54;;;;;;;7.47;5.40;;;2.10;99.90;;;;;;5093872;28;20205;-82
2021/01/07 06:59:24;;;;;;;9.70;6.28;;;2.10;99.90;;;;;;5095105;28;20258;-85
2021/01/07 07:01:53;;;;;;;9.95;6.22;;;2.30;99.90;;;;;;5093606;28;20240;-83
2021/01/07 07:04:30;;;;;;;7.55;6.00;;;2.30;99.90;;;;;;5081981;28;20213;-81
2021/01/07 07:07:27;;;;;;;10.75;6.57;;;2.20;99.90;;;;;;5072711;28;20675;-83
2021/01/07 07:10:32;;;;;;;10.07;5.85;;;2.20;99.90;;;;;;5072912;28;20228;-83
2021/01/07 07:13:01;;;;;;;8.23;6.50;;;2.20;99.90;;;;;;5072957;28;20601;-83
2021/01/07 07:15:30;;;;;;;8.00;6.05;;;2.20;99.90;;;;;;5073963;28;20201;-83
2021/01/07 07:17:57;;;;;;;10.48;7.05;;;2.20;99.90;;;;;;5072800;28;20209;-80
2021/01/07 07:20:25;;;;;;;8.30;6.78;;;2.20;99.90;;;;;;5072516;28;20284;-83
2021/01/07 07:22:52;;;;;;;7.47;5.68;;;2.20;99.90;;;;;;5072443;28;20683;-81
2021/01/07 07:25:23;;;;;;;10.85;7.20;;;2.20;99.90;;;;;;5072662;28;20640;-82
2021/01/07 07:27:51;;;;;;;10.90;7.45;;;2.20;99.90;;;;;;5072001;28;20244;-83
2021/01/07 07:30:26;;;;;;;10.73;7.03;;;2.20;99.90;;;;;;5071691;28;20265;-83
2021/01/07 07:32:55;;;;;;;9.43;7.40;;;2.20;99.90;;;;;;5072506;28;20199;-80
2021/01/07 07:35:24;;;;;;;12.48;7.57;;;2.60;99.90;;;;;;5075068;28;20682;-80
2021/01/07 07:37:51;;;;;;;10.80;6.80;;;3.10;99.90;;;;;;5075844;28;20205;-78
2021/01/07 07:40:30;;;;;;;13.65;7.72;;;2.90;99.90;;;;;;5075822;28;20287;-78
2021/01/07 07:43:02;;;;;;;9.48;7.25;;;2.60;99.90;;;;;;5075910;28;20292;-81
2021/01/07 07:45:31;;;;;;;13.07;8.30;;;2.60;99.90;;;;;;5077918;28;20288;-81
2021/01/07 07:47:58;;;;;;;11.63;8.10;;;2.50;99.90;;;;;;5085875;28;20312;-80
2021/01/07 07:50:28;;;;;;;12.52;8.23;;;2.40;99.90;;;;;;5085180;28;20198;-83
2021/01/07 07:53:03;;;;;;;8.38;7.35;;;2.40;99.90;;;;;;5084327;28;20246;-83
2021/01/07 07:55:34;;;;;;;10.88;6.53;;;2.40;99.90;;;;;;5084549;28;20193;-83
2021/01/07 07:58:09;;;;;;;20.58;10.05;;;2.40;99.90;;;;;;5075688;28;20612;-80
2021/01/07 08:00:37;;;;;;;14.80;9.90;;;2.40;99.90;;;;;;5074327;28;20216;-81
2021/01/07 08:03:04;;;;;;;14.13;9.18;;;2.40;99.90;;;;;;5074508;28;20652;-81
2021/01/07 08:05:32;;;;;;;13.82;10.27;;;2.40;99.90;;;;;;5084013;28;20711;-81
2021/01/07 08:08:00;;;;;;;23.08;13.52;;;2.40;99.90;;;;;;5085315;28;20225;-81
2021/01/07 08:10:27;;;;;;;15.65;7.97;;;2.50;99.90;;;;;;5085380;28;20290;-80
2021/01/07 08:12:54;;;;;;;12.20;8.60;;;2.50;99.90;;;;;;5084445;28;20285;-79
2021/01/07 08:15:27;;;;;;;12.10;7.75;;;2.50;99.90;;;;;;5081779;28;20205;-81
2021/01/07 08:17:55;;;;;;;11.88;7.65;;;2.60;99.90;;;;;;5083495;28;20236;-81
2021/01/07 08:20:25;;;;;;;11.02;7.60;;;2.60;99.90;;;;;;5075940;28;20236;-81
2021/01/07 08:22:53;;;;;;;13.98;9.50;;;2.60;99.90;;;;;;5074425;28;20945;-82
2021/01/07 08:25:26;;;;;;;12.77;9.00;;;2.60;99.90;;;;;;5075232;28;20448;-81
2021/01/07 08:27:57;;;;;;;10.30;8.07;;;2.60;99.90;;;;;;5074940;28;20238;-80
2021/01/07 08:30:25;;;;;;;16.90;11.07;;;2.60;99.90;;;;;;5072979;28;20861;-80
2021/01/07 08:32:56;;;;;;;12.70;8.60;;;2.60;99.90;;;;;;5074930;28;20198;-80
2021/01/07 08:35:24;;;;;;;14.50;9.73;;;2.60;99.90;;;;;;5094685;28;20213;-81
2021/01/07 08:37:51;;;;;;;14.82;8.95;;;2.70;99.90;;;;;;5095171;28;20205;-82
2021/01/07 08:40:21;;;;;;;12.60;9.05;;;2.70;99.90;;;;;;5093040;28;20287;-78
2021/01/07 08:42:47;;;;;;;16.85;10.68;;;2.70;99.90;;;;;;5094207;28;20246;-79
2021/01/07 08:45:14;;;;;;;13.40;9.18;;;2.70;99.90;;;;;;5093504;28;20751;-79
2021/01/07 08:47:40;;;;;;;9.60;8.68;;;2.80;99.90;;;;;;5094400;28;20243;-80
2021/01/07 08:50:09;;;;;;;13.52;9.93;;;2.80;99.90;;;;;;5084431;28;20287;-84
2021/01/07 08:52:52;;;;;;;18.48;12.70;;;2.80;99.90;;;;;;5081184;28;20198;-79
2021/01/07 08:55:19;;;;;;;32.13;12.75;;;2.80;99.90;;;;;;5085175;28;20296;-79
2021/01/07 08:57:46;;;;;;;21.20;15.15;;;2.80;99.90;;;;;;5081631;28;20206;-77
2021/01/07 09:00:19;;;;;;;14.35;10.65;;;2.90;99.90;;;;;;5087184;28;20201;-78
2021/01/07 09:02:46;;;;;;;16.67;11.32;;;2.90;99.90;;;;;;5093547;28;20287;-77
2021/01/07 09:05:12;;;;;;;14.82;11.43;;;3.00;99.90;;;;;;5094117;28;20209;-79
2021/01/07 09:07:39;;;;;;;11.88;9.35;;;2.90;99.90;;;;;;5094013;28;20582;-78
2021/01/07 09:10:07;;;;;;;22.60;14.07;;;3.00;99.90;;;;;;5093840;28;20201;-78
2021/01/07 09:12:36;;;;;;;19.63;14.10;;;3.20;99.90;;;;;;5093959;28;20203;-78
2021/01/07 09:15:06;;;;;;;20.80;15.15;;;3.20;99.90;;;;;;5091681;28;20235;-81
2021/01/07 09:17:40;;;;;;;18.50;12.07;;;3.20;99.90;;;;;;5093914;28;20201;-79
2021/01/07 09:20:08;;;;;;;11.63;8.05;;;3.30;99.90;;;;;;5092784;28;20279;-79
2021/01/07 09:22:35;;;;;;;11.75;8.40;;;3.20;99.90;;;;;;5093503;28;20215;-79
2021/01/07 09:25:01;;;;;;;15.00;10.40;;;3.40;99.90;;;;;;5092442;28;20205;-79
2021/01/07 09:27:29;;;;;;;18.08;9.95;;;3.40;99.90;;;;;;5093532;28;20237;-78
2021/01/07 09:29:56;;;;;;;12.18;8.20;;;3.40;99.90;;;;;;5092599;28;20197;-80
2021/01/07 09:32:23;;;;;;;11.60;9.55;;;3.40;99.90;;;;;;5093536;28;20197;-79
2021/01/07 09:34:50;;;;;;;10.63;8.20;;;3.30;99.90;;;;;;5084277;28;20207;-79
2021/01/07 09:37:17;;;;;;;11.75;8.07;;;3.50;99.90;;;;;;5073033;28;20752;-80
2021/01/07 09:39:44;;;;;;;16.83;12.10;;;3.40;99.90;;;;;;5073058;28;20293;-79
2021/01/07 09:42:11;;;;;;;11.90;10.70;;;3.50;99.90;;;;;;5073013;28;20201;-82
2021/01/07 09:44:39;;;;;;;12.38;8.68;;;3.60;99.90;;;;;;5071592;28;20660;-81
2021/01/07 09:47:06;;;;;;;13.18;9.00;;;3.40;99.90;;;;;;5072944;28;20335;-78
2021/01/07 09:49:33;;;;;;;12.80;9.55;;;3.50;99.90;;;;;;5072561;28;20286;-81
2021/01/07 09:52:00;;;;;;;12.45;8.70;;;3.70;99.90;;;;;;5073075;28;20300;-81
2021/01/07 09:54:27;;;;;;;12.75;8.93;;;3.80;99.90;;;;;;5072857;28;20539;-79
2021/01/07 09:56:55;;;;;;;11.27;8.30;;;3.70;99.90;;;;;;5072463;28;20206;-78
2021/01/07 09:59:22;;;;;;;13.90;9.75;;;3.80;99.90;;;;;;5075907;28;20284;-77
2021/01/07 10:01:52;;;;;;;10.75;8.10;;;3.80;99.90;;;;;;5093121;28;20317;-80
2021/01/07 10:04:19;;;;;;;12.77;8.60;;;3.90;99.90;;;;;;5087490;28;20617;-81
2021/01/07 10:06:45;;;;;;;14.13;9.45;;;4.00;99.90;;;;;;5074604;28;20724;-85
2021/01/07 10:09:12;;;;;;;12.30;9.10;;;4.00;99.90;;;;;;5073015;28;20229;-84
2021/01/07 10:12:28;;;;;;;13.02;9.77;;;4.10;99.90;;;;;;5078222;28;20209;-81
2021/01/07 10:14:54;;;;;;;16.40;9.95;;;4.10;99.90;;;;;;5091350;28;20200;-86
2021/01/07 10:17:21;;;;;;;18.73;10.73;;;3.90;99.90;;;;;;5093138;28;20291;-84
2021/01/07 10:19:48;;;;;;;13.27;9.65;;;3.90;99.90;;;;;;5092842;28;20288;-79
2021/01/07 10:22:17;;;;;;;12.80;8.63;;;3.90;99.90;;;;;;5092973;28;20654;-83
2021/01/07 10:24:45;;;;;;;22.80;13.25;;;3.90;99.90;;;;;;5093092;28;20201;-84
2021/01/07 10:27:14;;;;;;;16.75;11.65;;;3.80;99.90;;;;;;5083829;28;20225;-84
2021/01/07 10:29:41;;;;;;;17.48;9.70;;;3.80;99.90;;;;;;5078926;28;20587;-83
2021/01/07 10:32:09;;;;;;;10.82;8.52;;;3.90;99.90;;;;;;5082584;28;21018;-83
2021/01/07 10:34:39;;;;;;;14.18;9.85;;;4.00;99.90;;;;;;5080141;28;20233;-81
2021/01/07 10:37:08;;;;;;;13.48;9.23;;;4.00;99.90;;;;;;5080129;28;20189;-81
2021/01/07 10:39:36;;;;;;;17.10;11.90;;;3.90;99.90;;;;;;5089086;28;20200;-82
2021/01/07 10:42:06;;;;;;;13.77;9.93;;;4.10;99.90;;;;;;5092398;28;20205;-80
2021/01/07 10:44:35;;;;;;;16.45;8.90;;;4.10;99.90;;;;;;5091587;28;20572;-86
2021/01/07 10:47:02;;;;;;;13.90;9.23;;;4.10;99.90;;;;;;5092563;28;20196;-80
2021/01/07 10:49:30;;;;;;;11.65;7.97;;;4.30;99.90;;;;;;5092272;28;20389;-80
2021/01/07 10:52:32;;;;;;;17.23;10.23;;;4.30;99.90;;;;;;5092663;28;20291;-81
2021/01/07 10:55:09;;;;;;;13.57;7.93;;;4.30;99.90;;;;;;5092851;28;20283;-83
2021/01/07 10:58:03;;;;;;;19.63;12.57;;;4.20;99.90;;;;;;5092563;28;20299;-79
2021/01/07 11:00:44;;;;;;;18.10;10.38;;;4.10;99.90;;;;;;5083977;28;20656;-82
2021/01/07 11:03:31;;;;;;;14.32;11.80;;;4.30;99.90;;;;;;5091764;28;20295;-80
2021/01/07 11:06:01;;;;;;;12.05;7.88;;;4.40;99.90;;;;;;5092522;28;20233;-81
2021/01/07 11:08:33;;;;;;;21.05;12.18;;;4.30;99.90;;;;;;5091884;28;20319;-81
2021/01/07 11:11:05;;;;;;;18.73;10.20;;;4.40;99.90;;;;;;5092925;28;20296;-82
2021/01/07 11:13:36;;;;;;;10.73;7.38;;;4.30;99.90;;;;;;5095253;28;20197;-84
2021/01/07 11:16:03;;;;;;;12.13;8.30;;;4.20;99.90;;;;;;5096387;28;20201;-84
2021/01/07 11:18:32;;;;;;;11.95;8.63;;;4.40;99.90;;;;;;5097038;28;20236;-81
2021/01/07 11:21:02;;;;;;;13.52;9.25;;;4.40;99.90;;;;;;5096947;28;20236;-88
2021/01/07 11:23:31;;;;;;;8.90;7.30;;;4.40;99.90;;;;;;5095837;28;20203;-83
2021/01/07 11:25:58;;;;;;;10.20;5.75;;;4.40;99.90;;;;;;5096576;28;20197;-82
2021/01/07 11:28:27;;;;;;;8.32;5.80;;;4.40;99.90;;;;;;5097424;28;20252;-81
2021/01/07 11:30:54;;;;;;;10.00;6.28;;;4.20;99.90;;;;;;5097240;28;20201;-82
2021/01/07 11:33:20;;;;;;;12.02;7.60;;;4.80;99.90;;;;;;5103255;28;20291;-81
2021/01/07 11:35:48;;;;;;;11.40;8.80;;;4.60;99.90;;;;;;5098707;28;20291;-81
2021/01/07 11:38:23;;;;;;;13.13;10.18;;;4.40;99.90;;;;;;5103738;28;20239;-82
2021/01/07 11:40:58;;;;;;;16.00;9.38;;;4.40;99.90;;;;;;5096906;28;20216;-82
2021/01/07 11:43:57;;;;;;;7.82;5.05;;;4.50;99.90;;;;;;5084701;28;20735;-82
2021/01/07 11:46:24;;;;;;;8.90;5.25;;;4.50;99.90;;;;;;5077175;28;20705;-84
2021/01/07 11:48:56;;;;;;;5.03;4.07;;;4.30;99.90;;;;;;5076513;28;20233;-83
2021/01/07 11:51:22;;;;;;;7.82;5.53;;;4.10;99.90;;;;;;5076664;28;20656;-82
2021/01/07 11:53:50;;;;;;;9.02;5.53;;;4.00;99.90;;;;;;5075590;28;20205;-82
2021/01/07 11:56:18;;;;;;;6.53;5.82;;;4.00;99.90;;;;;;5075664;28;20208;-81
2021/01/07 11:58:46;;;;;;;12.15;6.55;;;4.30;99.90;;;;;;5074449;28;20225;-81
2021/01/07 12:01:13;;;;;;;10.88;6.90;;;4.40;99.90;;;;;;5075536;28;20212;-83
2021/01/07 12:03:39;;;;;;;7.00;5.82;;;4.40;99.90;;;;;;5080075;28;20292;-83
2021/01/07 12:06:07;;;;;;;11.05;6.10;;;4.50;99.90;;;;;;5096009;28;20288;-84
2021/01/07 12:08:44;;;;;;;8.70;5.00;;;4.50;99.90;;;;;;5096470;28;20235;-83
2021/01/07 12:11:18;;;;;;;9.43;6.97;;;4.40;99.90;;;;;;5080090;28;20611;-82
2021/01/07 12:13:56;;;;;;;6.20;4.22;;;4.60;99.90;;;;;;5074130;28;20301;-83
2021/01/07 12:16:27;;;;;;;7.72;5.50;;;4.60;99.90;;;;;;5074828;28;20202;-82
2021/01/07 12:18:56;;;;;;;6.10;5.50;;;4.60;99.90;;;;;;5074824;28;20287;-81
2021/01/07 12:21:23;;;;;;;6.63;4.50;;;4.70;99.90;;;;;;5074822;28;20296;-82
2021/01/07 12:23:50;;;;;;;8.70;5.97;;;4.60;99.90;;;;;;5075183;28;20212;-81
2021/01/07 12:26:17;;;;;;;12.43;8.35;;;4.50;99.90;;;;;;5074737;28;20331;-83
2021/01/07 12:28:50;;;;;;;6.53;5.70;;;4.40;99.90;;;;;;5073608;28;20389;-85
2021/01/07 12:31:19;;;;;;;4.78;4.13;;;4.40;99.90;;;;;;5074723;28;20735;-81
2021/01/07 12:34:03;;;;;;;7.40;6.70;;;4.40;99.90;;;;;;5083405;28;20224;-81
2021/01/07 12:36:42;;;;;;;45.55;37.20;;;4.50;99.90;;;;;;5094805;28;20262;-83
2021/01/07 12:39:29;;;;;;;20.00;17.20;;;4.50;99.90;;;;;;5094262;28;20751;-82
2021/01/07 12:41:57;;;;;;;17.10;15.23;;;4.60;99.90;;;;;;5093809;28;20209;-86
2021/01/07 12:44:26;;;;;;;14.40;12.13;;;4.50;99.90;;;;;;5093666;28;20660;-81
2021/01/07 12:46:56;;;;;;;32.47;22.15;;;4.50;99.90;;;;;;5095300;28;20291;-83
2021/01/07 12:49:23;;;;;;;31.80;20.25;;;4.50;99.90;;;;;;5095080;28;20285;-80
2021/01/07 12:51:51;;;;;;;71.40;45.00;;;4.60;99.90;;;;;;5095226;28;20297;-84
2021/01/07 12:54:18;;;;;;;34.85;22.85;;;4.60;99.90;;;;;;5094887;28;20204;-82
2021/01/07 12:56:53;;;;;;;46.97;29.83;;;4.60;99.90;;;;;;5095000;28;20208;-83
2021/01/07 12:59:23;;;;;;;19.83;13.07;;;4.70;99.90;;;;;;5093647;28;20211;-82